createdAt,value
2023-10-28T00:00:52.292Z,10.50
2023-10-28T00:03:19.667Z,10.60
2023-10-28T00:05:46.772Z,10.60
2023-10-28T00:08:13.873Z,10.60
2023-10-28T00:10:42.453Z,10.60
2023-10-28T00:13:10.208Z,10.60
2023-10-28T00:15:40.318Z,10.60
2023-10-28T00:18:10.154Z,10.60
2023-10-28T00:20:38.599Z,10.60
2023-10-28T00:23:06.305Z,10.60
2023-10-28T00:25:33.699Z,10.60
2023-10-28T00:28:03.488Z,10.60
2023-10-28T00:30:30.509Z,10.60
2023-10-28T00:33:01.674Z,10.70
2023-10-28T00:35:29.805Z,10.70
2023-10-28T00:37:57.086Z,10.60
2023-10-28T00:40:31.544Z,10.70
2023-10-28T00:43:02.533Z,10.70
2023-10-28T00:45:31.824Z,10.70
2023-10-28T00:47:59.255Z,10.70
2023-10-28T00:50:27.278Z,10.70
2023-10-28T00:52:55.971Z,10.70
2023-10-28T00:55:24.620Z,10.70
2023-10-28T00:57:53.008Z,10.70
2023-10-28T01:00:22.431Z,10.60
2023-10-28T01:02:49.978Z,10.60
2023-10-28T01:05:17.978Z,10.70
2023-10-28T01:07:48.007Z,10.70
2023-10-28T01:10:30.464Z,10.60
2023-10-28T01:12:58.196Z,10.70
2023-10-28T01:15:25.255Z,10.60
2023-10-28T01:17:52.577Z,10.70
2023-10-28T01:20:20.801Z,10.70
2023-10-28T01:22:48.065Z,10.60
2023-10-28T01:25:15.519Z,10.70
2023-10-28T01:27:44.739Z,10.70
2023-10-28T01:30:15.771Z,10.70
2023-10-28T01:32:44.212Z,10.70
2023-10-28T01:35:12.311Z,10.80
2023-10-28T01:37:39.552Z,10.80
2023-10-28T01:40:13.938Z,10.70
2023-10-28T01:42:46.922Z,10.80
2023-10-28T01:45:15.165Z,10.80
2023-10-28T01:47:43.309Z,10.70
2023-10-28T01:50:14.980Z,10.80
2023-10-28T01:52:43.495Z,10.80
2023-10-28T01:55:13.110Z,10.80
2023-10-28T01:57:41.211Z,10.80
2023-10-28T02:00:14.215Z,10.80
2023-10-28T02:02:46.528Z,10.80
2023-10-28T02:05:16.651Z,10.70
2023-10-28T02:07:44.201Z,10.80
2023-10-28T02:10:11.922Z,10.80
2023-10-28T02:12:39.196Z,10.80
2023-10-28T02:15:09.779Z,10.80
2023-10-28T02:17:39.253Z,10.80
2023-10-28T02:20:08.346Z,10.80
2023-10-28T02:22:36.395Z,10.80
2023-10-28T02:25:05.242Z,10.70
2023-10-28T02:27:32.488Z,10.70
2023-10-28T02:29:59.605Z,10.60
2023-10-28T02:32:27.049Z,10.60
2023-10-28T02:34:55.082Z,10.60
2023-10-28T02:37:22.103Z,10.60
2023-10-28T02:39:49.342Z,10.60
2023-10-28T02:42:16.598Z,10.70
2023-10-28T02:44:43.591Z,10.60
2023-10-28T02:47:11.121Z,10.60
2023-10-28T02:49:38.689Z,10.60
2023-10-28T02:52:06.695Z,10.70
2023-10-28T02:54:34.302Z,10.70
2023-10-28T02:57:02.044Z,10.60
2023-10-28T02:59:29.206Z,10.60
2023-10-28T03:01:57.399Z,10.70
2023-10-28T03:04:25.177Z,10.70
2023-10-28T03:07:01.511Z,10.70
2023-10-28T03:09:28.540Z,10.70
2023-10-28T03:11:55.670Z,10.70
2023-10-28T03:14:25.906Z,10.60
2023-10-28T03:16:53.236Z,10.70
2023-10-28T03:19:20.291Z,10.70
2023-10-28T03:21:47.489Z,10.60
2023-10-28T03:24:15.955Z,10.60
2023-10-28T03:26:43.303Z,10.60
2023-10-28T03:29:10.317Z,10.50
2023-10-28T03:31:39.532Z,10.50
2023-10-28T03:34:07.052Z,10.50
2023-10-28T03:36:34.115Z,10.60
2023-10-28T03:39:01.217Z,10.50
2023-10-28T03:41:29.396Z,10.60
2023-10-28T03:43:56.464Z,10.50
2023-10-28T03:46:23.471Z,10.50
2023-10-28T03:48:51.749Z,10.50
2023-10-28T03:51:18.864Z,10.60
2023-10-28T03:53:46.083Z,10.60
2023-10-28T03:56:13.475Z,10.50
2023-10-28T03:58:40.862Z,10.50
2023-10-28T04:01:07.941Z,10.50
2023-10-28T04:03:35.001Z,10.50
2023-10-28T04:06:03.948Z,10.50
2023-10-28T04:08:32.429Z,10.50
2023-10-28T04:10:59.491Z,10.50
2023-10-28T04:13:26.572Z,10.50
2023-10-28T04:15:53.615Z,10.50
2023-10-28T04:18:20.761Z,10.50
2023-10-28T04:20:49.325Z,10.50
2023-10-28T04:23:16.471Z,10.50
2023-10-28T04:25:43.636Z,10.50
2023-10-28T04:28:10.668Z,10.50
2023-10-28T04:30:37.692Z,10.50
2023-10-28T04:33:05.499Z,10.50
2023-10-28T04:35:33.077Z,10.50
2023-10-28T04:38:00.308Z,10.50
2023-10-28T04:40:27.492Z,10.50
2023-10-28T04:42:55.789Z,10.50
2023-10-28T04:45:23.534Z,10.50
2023-10-28T04:47:52.243Z,10.50
2023-10-28T04:50:19.990Z,10.50
2023-10-28T04:52:47.435Z,10.50
2023-10-28T04:55:14.709Z,10.50
2023-10-28T04:57:42.664Z,10.50
2023-10-28T05:00:10.770Z,10.50
2023-10-28T05:02:37.977Z,10.50
2023-10-28T05:05:05.999Z,10.50
2023-10-28T05:07:35.226Z,10.50
2023-10-28T05:10:02.876Z,10.50
2023-10-28T05:12:30.077Z,10.50
2023-10-28T05:14:58.877Z,10.50
2023-10-28T05:17:29.003Z,10.50
2023-10-28T05:19:56.091Z,10.50
2023-10-28T05:22:30.500Z,10.50
2023-10-28T05:24:57.651Z,10.50
2023-10-28T05:27:24.632Z,10.50
2023-10-28T05:29:51.730Z,10.40
2023-10-28T05:32:23.119Z,10.50
2023-10-28T05:34:50.190Z,10.40
2023-10-28T05:37:17.760Z,10.40
2023-10-28T05:39:45.015Z,10.40
2023-10-28T05:42:12.745Z,10.30
2023-10-28T05:44:39.909Z,10.40
2023-10-28T05:47:08.793Z,10.30
2023-10-28T05:49:36.342Z,10.30
2023-10-28T05:52:03.574Z,10.30
2023-10-28T05:54:32.478Z,10.30
2023-10-28T05:56:59.759Z,10.40
2023-10-28T05:59:26.805Z,10.40
2023-10-28T06:01:53.869Z,10.40
2023-10-28T06:04:22.586Z,10.40
2023-10-28T06:06:49.882Z,10.40
2023-10-28T06:09:17.194Z,10.40
2023-10-28T06:11:44.247Z,10.40
2023-10-28T06:14:11.447Z,10.40
2023-10-28T06:16:39.521Z,10.40
2023-10-28T06:19:07.537Z,10.50
2023-10-28T06:21:34.634Z,10.50
2023-10-28T06:24:01.817Z,10.50
2023-10-28T06:26:31.763Z,10.50
2023-10-28T06:29:00.103Z,10.50
2023-10-28T06:31:27.793Z,10.50
2023-10-28T06:33:58.056Z,10.60
2023-10-28T06:36:25.013Z,10.60
2023-10-28T06:38:55.625Z,10.60
2023-10-28T06:41:22.935Z,10.60
2023-10-28T06:43:50.157Z,10.60
2023-10-28T06:46:17.534Z,10.60
2023-10-28T06:48:44.736Z,10.60
2023-10-28T06:51:14.020Z,10.60
2023-10-28T06:53:43.714Z,10.70
2023-10-28T06:56:10.988Z,10.70
2023-10-28T06:58:40.524Z,10.80
2023-10-28T07:01:10.030Z,10.80
2023-10-28T07:03:41.469Z,10.80
2023-10-28T07:06:16.974Z,10.80
2023-10-28T07:08:44.506Z,10.90
2023-10-28T07:11:15.408Z,10.80
2023-10-28T07:13:42.548Z,10.80
2023-10-28T07:16:09.633Z,10.90
2023-10-28T07:18:36.765Z,10.90
2023-10-28T07:21:07.546Z,10.90
2023-10-28T07:23:36.673Z,11.00
2023-10-28T07:26:08.596Z,11.00
2023-10-28T07:28:38.785Z,11.10
2023-10-28T07:31:07.280Z,11.10
2023-10-28T07:33:35.136Z,11.10
2023-10-28T07:36:05.549Z,11.10
2023-10-28T07:38:33.220Z,11.10
2023-10-28T07:41:00.874Z,11.10
2023-10-28T07:43:28.100Z,11.10
2023-10-28T07:45:55.254Z,11.10
2023-10-28T07:48:22.398Z,11.20
2023-10-28T07:50:50.321Z,11.20
2023-10-28T07:53:18.634Z,11.20
2023-10-28T07:55:45.759Z,11.20
2023-10-28T07:58:13.284Z,11.20
2023-10-28T08:00:40.379Z,11.20
2023-10-28T08:03:11.719Z,11.20
2023-10-28T08:05:38.931Z,11.20
2023-10-28T08:08:06.034Z,11.20
2023-10-28T08:10:34.241Z,11.30
2023-10-28T08:13:02.334Z,11.30
2023-10-28T08:15:32.371Z,11.30
2023-10-28T08:18:02.133Z,11.30
2023-10-28T08:20:30.031Z,11.40
2023-10-28T08:22:58.298Z,11.50
2023-10-28T08:25:25.940Z,11.60
2023-10-28T08:27:53.531Z,11.50
2023-10-28T08:30:21.502Z,11.60
2023-10-28T08:32:49.114Z,11.70
2023-10-28T08:35:16.251Z,11.70
2023-10-28T08:37:43.292Z,11.70
2023-10-28T08:40:13.196Z,11.80
2023-10-28T08:42:41.688Z,11.80
2023-10-28T08:45:10.265Z,11.80
2023-10-28T08:47:41.982Z,11.80
2023-10-28T08:50:10.283Z,11.80
2023-10-28T08:52:40.120Z,11.80
2023-10-28T08:55:12.224Z,11.80
2023-10-28T08:57:46.490Z,11.90
2023-10-28T09:00:17.427Z,11.90
2023-10-28T09:02:52.717Z,11.90
2023-10-28T09:05:21.384Z,12.00
2023-10-28T09:07:49.030Z,12.00
2023-10-28T09:10:19.442Z,12.10
2023-10-28T09:12:46.633Z,12.10
2023-10-28T09:15:13.909Z,12.10
2023-10-28T09:17:47.019Z,12.20
2023-10-28T09:20:18.919Z,12.10
2023-10-28T09:22:46.560Z,12.30
2023-10-28T09:25:32.006Z,12.40
2023-10-28T09:28:00.191Z,12.40
2023-10-28T09:30:27.251Z,12.40
2023-10-28T09:32:58.916Z,12.50
2023-10-28T09:35:28.235Z,12.60
2023-10-28T09:37:57.328Z,12.70
2023-10-28T09:40:25.157Z,12.90
2023-10-28T09:42:52.214Z,13.10
2023-10-28T09:45:24.913Z,13.20
2023-10-28T09:48:00.484Z,13.30
2023-10-28T09:50:39.371Z,13.40
2023-10-28T09:53:07.878Z,13.50
2023-10-28T09:55:46.686Z,13.40
2023-10-28T09:58:36.964Z,13.30
2023-10-28T10:01:43.208Z,13.30
2023-10-28T10:04:48.657Z,13.20
2023-10-28T10:07:18.983Z,13.20
2023-10-28T10:09:50.141Z,13.30
2023-10-28T10:12:17.336Z,13.40
2023-10-28T10:14:48.440Z,13.60
2023-10-28T10:17:35.823Z,13.80
2023-10-28T10:20:06.396Z,13.80
2023-10-28T10:22:59.636Z,13.70
2023-10-28T10:25:32.952Z,13.70
2023-10-28T10:28:16.934Z,13.60
2023-10-28T10:30:46.111Z,13.70
2023-10-28T10:33:26.331Z,13.70
2023-10-28T10:35:57.066Z,13.70
2023-10-28T10:38:30.882Z,13.50
2023-10-28T10:41:01.903Z,13.50
2023-10-28T10:43:33.051Z,13.50
2023-10-28T10:46:00.929Z,13.60
2023-10-28T10:48:28.286Z,13.60
2023-10-28T10:50:58.014Z,13.80
2023-10-28T10:53:25.257Z,13.80
2023-10-28T10:55:52.540Z,13.80
2023-10-28T10:58:20.208Z,13.70
2023-10-28T11:00:55.488Z,13.70
2023-10-28T11:03:25.772Z,13.90
2023-10-28T11:05:53.881Z,13.90
2023-10-28T11:08:23.696Z,13.70
2023-10-28T11:10:50.776Z,13.80
2023-10-28T11:13:17.782Z,13.80
2023-10-28T11:15:44.927Z,13.90
2023-10-28T11:18:12.064Z,14.00
2023-10-28T11:20:40.238Z,14.10
2023-10-28T11:23:07.391Z,14.20
2023-10-28T11:25:35.825Z,14.10
2023-10-28T11:28:10.364Z,14.00
2023-10-28T11:30:39.265Z,14.00
2023-10-28T11:33:09.656Z,14.30
2023-10-28T11:35:36.987Z,14.50
2023-10-28T11:38:04.905Z,14.60
2023-10-28T11:40:32.181Z,14.50
2023-10-28T11:42:59.503Z,14.60
2023-10-28T11:45:31.215Z,14.70
2023-10-28T11:47:58.364Z,14.60
2023-10-28T11:50:27.503Z,14.40
2023-10-28T11:52:55.159Z,14.40
2023-10-28T11:55:22.369Z,14.60
2023-10-28T11:57:49.708Z,14.60
2023-10-28T12:00:17.083Z,14.50
2023-10-28T12:02:44.751Z,14.50
2023-10-28T12:05:11.759Z,14.30
2023-10-28T12:07:38.715Z,14.40
2023-10-28T12:10:08.155Z,14.40
2023-10-28T12:12:35.276Z,14.40
2023-10-28T12:15:02.503Z,14.30
2023-10-28T12:17:29.519Z,14.30
2023-10-28T12:20:00.759Z,14.20
2023-10-28T12:22:27.873Z,14.20
2023-10-28T12:24:55.158Z,14.20
2023-10-28T12:27:22.153Z,14.40
2023-10-28T12:29:49.447Z,14.60
2023-10-28T12:32:16.729Z,14.50
2023-10-28T12:34:45.938Z,14.50
2023-10-28T12:37:12.894Z,14.60
2023-10-28T12:39:39.951Z,14.40
2023-10-28T12:42:07.228Z,14.60
2023-10-28T12:44:34.531Z,14.60
2023-10-28T12:47:03.463Z,14.80
2023-10-28T12:49:30.631Z,14.80
2023-10-28T12:52:00.521Z,14.60
2023-10-28T12:54:28.949Z,14.50
2023-10-28T12:56:56.306Z,14.40
2023-10-28T12:59:23.439Z,14.40
2023-10-28T13:01:50.723Z,14.50
2023-10-28T13:04:19.433Z,14.50
2023-10-28T13:06:48.388Z,14.60
2023-10-28T13:09:16.559Z,14.60
2023-10-28T13:11:43.671Z,14.60
2023-10-28T13:14:13.160Z,14.70
2023-10-28T13:16:40.296Z,14.70
2023-10-28T13:19:07.312Z,14.70
2023-10-28T13:21:34.344Z,14.70
2023-10-28T13:24:01.811Z,14.60
2023-10-28T13:26:28.943Z,14.60
2023-10-28T13:28:56.393Z,14.60
2023-10-28T13:31:24.583Z,14.60
2023-10-28T13:33:51.695Z,14.80
2023-10-28T13:36:18.692Z,15.00
2023-10-28T13:38:45.780Z,15.10
2023-10-28T13:41:12.854Z,15.00
2023-10-28T13:43:41.275Z,15.10
2023-10-28T13:46:08.564Z,15.20
2023-10-28T13:48:36.285Z,15.20
2023-10-28T13:51:03.456Z,15.10
2023-10-28T13:53:30.725Z,15.10
2023-10-28T13:56:01.404Z,15.10
2023-10-28T13:58:30.145Z,15.10
2023-10-28T14:01:05.956Z,15.00
2023-10-28T14:03:38.047Z,15.00
2023-10-28T14:06:16.097Z,14.90
2023-10-28T14:08:43.648Z,14.80
2023-10-28T14:11:10.832Z,14.80
2023-10-28T14:13:41.356Z,14.80
2023-10-28T14:16:16.275Z,14.70
2023-10-28T14:18:46.832Z,14.70
2023-10-28T14:21:14.149Z,14.60
2023-10-28T14:23:41.222Z,14.50
2023-10-28T14:26:08.602Z,14.50
2023-10-28T14:28:36.828Z,14.40
2023-10-28T14:31:03.992Z,14.30
2023-10-28T14:33:31.171Z,14.30
2023-10-28T14:36:06.699Z,14.30
2023-10-28T14:38:34.512Z,14.30
2023-10-28T14:41:01.683Z,14.30
2023-10-28T14:43:29.553Z,14.30
2023-10-28T14:45:57.225Z,14.20
2023-10-28T14:48:27.154Z,14.20
2023-10-28T14:50:54.243Z,14.20
2023-10-28T14:53:22.562Z,14.20
2023-10-28T14:55:49.794Z,14.10
2023-10-28T14:58:31.970Z,14.10
2023-10-28T15:01:12.916Z,14.10
2023-10-28T15:03:41.452Z,14.00
2023-10-28T15:06:08.856Z,14.00
2023-10-28T15:08:35.992Z,14.00
2023-10-28T15:11:05.697Z,14.00
2023-10-28T15:13:33.030Z,14.10
2023-10-28T15:16:01.214Z,14.00
2023-10-28T15:18:28.982Z,14.00
2023-10-28T15:20:56.687Z,14.00
2023-10-28T15:23:24.683Z,14.00
2023-10-28T15:25:51.795Z,14.00
2023-10-28T15:28:19.043Z,13.90
2023-10-28T15:30:46.323Z,13.90
2023-10-28T15:33:13.566Z,13.90
2023-10-28T15:35:42.153Z,13.80
2023-10-28T15:38:09.170Z,13.80
2023-10-28T15:40:38.216Z,13.80
2023-10-28T15:43:05.375Z,13.70
2023-10-28T15:45:32.415Z,13.70
2023-10-28T15:47:59.815Z,13.70
2023-10-28T15:50:26.878Z,13.60
2023-10-28T15:52:53.998Z,13.60
2023-10-28T15:55:21.189Z,13.50
2023-10-28T15:57:48.261Z,13.50
2023-10-28T16:00:16.354Z,13.50
2023-10-28T16:02:44.913Z,13.40
2023-10-28T16:05:12.317Z,13.40
2023-10-28T16:07:39.669Z,13.30
2023-10-28T16:10:07.540Z,13.20
2023-10-28T16:12:37.703Z,13.20
2023-10-28T16:15:05.816Z,13.20
2023-10-28T16:17:32.796Z,13.10
2023-10-28T16:20:00.039Z,13.10
2023-10-28T16:22:27.126Z,13.10
2023-10-28T16:24:54.069Z,13.00
2023-10-28T16:27:21.447Z,13.00
2023-10-28T16:29:48.491Z,13.00
2023-10-28T16:32:15.710Z,12.90
2023-10-28T16:34:47.044Z,12.90
2023-10-28T16:37:15.709Z,12.90
2023-10-28T16:39:42.736Z,12.90
2023-10-28T16:42:09.878Z,12.90
2023-10-28T16:44:38.964Z,12.80
2023-10-28T16:47:06.117Z,12.80
2023-10-28T16:49:33.834Z,12.80
2023-10-28T16:52:02.015Z,12.80
2023-10-28T16:54:29.136Z,12.70
2023-10-28T16:56:56.184Z,12.70
2023-10-28T16:59:23.897Z,12.70
2023-10-28T17:01:52.311Z,12.60
2023-10-28T17:04:19.335Z,12.60
2023-10-28T17:06:48.636Z,12.50
2023-10-28T17:09:16.021Z,12.50
2023-10-28T17:11:43.195Z,12.50
2023-10-28T17:14:10.367Z,12.40
2023-10-28T17:16:38.442Z,12.40
2023-10-28T17:19:05.872Z,12.40
2023-10-28T17:21:33.141Z,12.40
2023-10-28T17:24:00.536Z,12.40
2023-10-28T17:26:27.637Z,12.40
2023-10-28T17:28:54.675Z,12.40
2023-10-28T17:31:21.705Z,12.40
2023-10-28T17:33:48.918Z,12.40
2023-10-28T17:36:16.185Z,12.40
2023-10-28T17:38:43.434Z,12.40
2023-10-28T17:41:11.812Z,12.40
2023-10-28T17:43:40.340Z,12.40
2023-10-28T17:46:12.442Z,12.40
2023-10-28T17:48:40.506Z,12.30
2023-10-28T17:51:12.902Z,12.40
2023-10-28T17:53:43.080Z,12.40
2023-10-28T17:56:11.148Z,12.30
2023-10-28T17:58:44.310Z,12.30
2023-10-28T18:01:16.317Z,12.30
2023-10-28T18:03:43.811Z,12.30
2023-10-28T18:06:14.674Z,12.30
2023-10-28T18:08:42.852Z,12.30
2023-10-28T18:11:11.331Z,12.30
2023-10-28T18:13:39.876Z,12.30
2023-10-28T18:16:08.547Z,12.30
2023-10-28T18:18:38.311Z,12.30
2023-10-28T18:21:05.697Z,12.30
2023-10-28T18:23:33.949Z,12.30
2023-10-28T18:26:01.526Z,12.30
2023-10-28T18:28:30.028Z,12.40
2023-10-28T18:31:05.064Z,12.40
2023-10-28T18:33:33.481Z,12.40
2023-10-28T18:36:07.866Z,12.40
2023-10-28T18:38:35.393Z,12.40
2023-10-28T18:41:04.610Z,12.40
2023-10-28T18:43:33.710Z,12.40
2023-10-28T18:46:05.322Z,12.40
2023-10-28T18:48:32.821Z,12.40
2023-10-28T18:51:10.758Z,12.40
2023-10-28T18:53:38.756Z,12.50
2023-10-28T18:56:11.304Z,12.40
2023-10-28T18:58:43.272Z,12.50
2023-10-28T19:01:14.407Z,12.50
2023-10-28T19:03:52.106Z,12.50
2023-10-28T19:06:20.962Z,12.50
2023-10-28T19:08:49.173Z,12.50
2023-10-28T19:11:16.579Z,12.40
2023-10-28T19:13:43.869Z,12.40
2023-10-28T19:16:11.478Z,12.30
2023-10-28T19:18:39.885Z,12.30
2023-10-28T19:21:07.162Z,12.30
2023-10-28T19:23:36.370Z,12.30
2023-10-28T19:26:04.135Z,12.20
2023-10-28T19:28:33.428Z,12.20
2023-10-28T19:31:00.539Z,12.20
2023-10-28T19:33:29.849Z,12.20
2023-10-28T19:35:57.117Z,12.20
2023-10-28T19:38:24.129Z,12.10
2023-10-28T19:40:52.903Z,12.20
2023-10-28T19:43:20.473Z,12.10
2023-10-28T19:45:47.609Z,12.10
2023-10-28T19:48:16.744Z,12.10
2023-10-28T19:50:45.028Z,12.10
2023-10-28T19:53:13.601Z,12.10
2023-10-28T19:55:40.906Z,12.10
2023-10-28T19:58:08.890Z,12.10
2023-10-28T20:00:39.332Z,12.10
2023-10-28T20:03:06.645Z,12.10
2023-10-28T20:05:34.679Z,12.00
2023-10-28T20:08:01.718Z,12.10
2023-10-28T20:10:28.787Z,12.10
2023-10-28T20:12:55.792Z,12.00
2023-10-28T20:15:22.946Z,12.00
2023-10-28T20:17:53.335Z,12.00
2023-10-28T20:20:21.937Z,12.00
2023-10-28T20:22:49.132Z,12.00
2023-10-28T20:25:23.941Z,12.00
2023-10-28T20:27:58.702Z,12.00
2023-10-28T20:30:26.682Z,12.00
2023-10-28T20:33:01.841Z,12.00
2023-10-28T20:35:32.584Z,12.00
2023-10-28T20:38:01.085Z,12.00
2023-10-28T20:40:28.917Z,12.10
2023-10-28T20:42:57.843Z,12.10
2023-10-28T20:45:25.374Z,12.10
2023-10-28T20:47:53.278Z,12.10
2023-10-28T20:50:20.385Z,12.10
2023-10-28T20:52:47.538Z,12.10
2023-10-28T20:55:14.654Z,12.10
2023-10-28T20:57:42.924Z,12.10
2023-10-28T21:00:12.272Z,12.20
2023-10-28T21:02:39.687Z,12.20
2023-10-28T21:05:07.059Z,12.20
2023-10-28T21:07:34.399Z,12.20
2023-10-28T21:10:01.692Z,12.30
2023-10-28T21:12:29.180Z,12.30
2023-10-28T21:14:56.319Z,12.30
2023-10-28T21:17:23.513Z,12.30
2023-10-28T21:19:50.800Z,12.30
2023-10-28T21:22:18.658Z,12.40
2023-10-28T21:24:48.828Z,12.40
2023-10-28T21:27:16.248Z,12.40
2023-10-28T21:29:46.912Z,12.50
2023-10-28T21:32:14.429Z,12.50
2023-10-28T21:34:41.995Z,12.50
2023-10-28T21:37:11.107Z,12.50
2023-10-28T21:39:38.973Z,12.50
2023-10-28T21:42:07.074Z,12.50
2023-10-28T21:44:34.464Z,12.50
2023-10-28T21:47:01.666Z,12.50
2023-10-28T21:49:31.202Z,12.50
2023-10-28T21:51:58.383Z,12.50
2023-10-28T21:54:25.593Z,12.50
2023-10-28T21:56:53.989Z,12.50
2023-10-28T21:59:21.913Z,12.50
2023-10-28T22:01:50.477Z,12.50
2023-10-28T22:04:19.229Z,12.50
2023-10-28T22:06:46.398Z,12.60
2023-10-28T22:09:14.333Z,12.50
2023-10-28T22:11:42.400Z,12.50
2023-10-28T22:14:09.802Z,12.60
2023-10-28T22:16:37.111Z,12.60
2023-10-28T22:19:04.513Z,12.60
2023-10-28T22:21:32.182Z,12.60
2023-10-28T22:23:59.269Z,12.60
2023-10-28T22:26:26.286Z,12.60
2023-10-28T22:28:53.365Z,12.60
2023-10-28T22:31:20.628Z,12.60
2023-10-28T22:33:47.776Z,12.60
2023-10-28T22:36:14.901Z,12.60
2023-10-28T22:38:42.155Z,12.60
2023-10-28T22:41:10.069Z,12.70
2023-10-28T22:43:37.221Z,12.70
2023-10-28T22:46:04.491Z,12.60
2023-10-28T22:48:31.587Z,12.70
2023-10-28T22:50:59.226Z,12.60
2023-10-28T22:53:26.790Z,12.70
2023-10-28T22:55:53.975Z,12.70
2023-10-28T22:58:21.074Z,12.70
2023-10-28T23:00:48.083Z,12.70
2023-10-28T23:03:15.593Z,12.70
2023-10-28T23:05:42.949Z,12.70
2023-10-28T23:08:10.281Z,12.80
2023-10-28T23:10:37.349Z,12.80
2023-10-28T23:13:04.533Z,12.80
2023-10-28T23:15:31.800Z,12.80
2023-10-28T23:17:58.960Z,12.80
2023-10-28T23:20:28.170Z,12.80
2023-10-28T23:22:56.921Z,12.80
2023-10-28T23:25:24.106Z,12.80
2023-10-28T23:27:51.374Z,12.90
2023-10-28T23:30:18.589Z,12.90
2023-10-28T23:32:45.810Z,12.90
2023-10-28T23:35:13.925Z,12.90
2023-10-28T23:37:41.280Z,13.00
2023-10-28T23:40:08.990Z,13.00
2023-10-28T23:42:36.351Z,13.00
2023-10-28T23:45:05.192Z,13.00
2023-10-28T23:47:32.872Z,13.00
2023-10-28T23:50:00.200Z,13.00
2023-10-28T23:52:27.220Z,13.10
2023-10-28T23:54:57.413Z,13.10
2023-10-28T23:57:24.534Z,13.10
2023-10-28T23:59:51.520Z,13.20
